sensor_id;sensor_type;location;lat;lon;timestamp;temperature;humidity
42841;DHT22;28491;46.898;7.660;2023-04-29T00:01:22;12.70;99.90
42841;DHT22;28491;46.898;7.660;2023-04-29T00:03:48;12.70;99.90
42841;DHT22;28491;46.898;7.660;2023-04-29T00:06:13;12.60;99.90
42841;DHT22;28491;46.898;7.660;2023-04-29T00:08:39;12.50;99.90
42841;DHT22;28491;46.898;7.660;2023-04-29T00:11:05;12.50;99.90
42841;DHT22;28491;46.898;7.660;2023-04-29T00:13:30;12.50;99.90
42841;DHT22;28491;46.898;7.660;2023-04-29T00:15:56;12.50;99.90
42841;DHT22;28491;46.898;7.660;2023-04-29T00:18:21;12.40;99.90
42841;DHT22;28491;46.898;7.660;2023-04-29T00:20:47;12.40;99.90
42841;DHT22;28491;46.898;7.660;2023-04-29T00:23:12;12.40;99.90
42841;DHT22;28491;46.898;7.660;2023-04-29T00:25:38;12.40;99.90
42841;DHT22;28491;46.898;7.660;2023-04-29T00:28:04;12.40;99.90
42841;DHT22;28491;46.898;7.660;2023-04-29T00:30:30;12.40;99.90
42841;DHT22;28491;46.898;7.660;2023-04-29T00:32:56;12.40;99.90
42841;DHT22;28491;46.898;7.660;2023-04-29T00:35:22;12.40;99.90
42841;DHT22;28491;46.898;7.660;2023-04-29T00:37:47;12.50;99.90
42841;DHT22;28491;46.898;7.660;2023-04-29T00:40:13;12.40;99.90
42841;DHT22;28491;46.898;7.660;2023-04-29T00:42:41;12.50;99.90
42841;DHT22;28491;46.898;7.660;2023-04-29T00:45:08;12.40;99.90
42841;DHT22;28491;46.898;7.660;2023-04-29T00:47:34;12.40;99.90
42841;DHT22;28491;46.898;7.660;2023-04-29T00:49:59;12.40;99.90
42841;DHT22;28491;46.898;7.660;2023-04-29T00:52:27;12.30;99.90
42841;DHT22;28491;46.898;7.660;2023-04-29T00:54:54;12.40;99.90
42841;DHT22;28491;46.898;7.660;2023-04-29T00:57:21;12.40;99.90
42841;DHT22;28491;46.898;7.660;2023-04-29T00:59:47;12.40;99.90
42841;DHT22;28491;46.898;7.660;2023-04-29T01:02:14;12.50;99.90
42841;DHT22;28491;46.898;7.660;2023-04-29T01:04:39;12.40;99.90
42841;DHT22;28491;46.898;7.660;2023-04-29T01:12:55;12.30;99.90
42841;DHT22;28491;46.898;7.660;2023-04-29T01:15:32;12.30;99.90
42841;DHT22;28491;46.898;7.660;2023-04-29T01:18:04;12.30;99.90
42841;DHT22;28491;46.898;7.660;2023-04-29T01:20:31;12.30;99.90
42841;DHT22;28491;46.898;7.660;2023-04-29T01:22:57;12.30;99.90
42841;DHT22;28491;46.898;7.660;2023-04-29T01:25:23;12.30;99.90
42841;DHT22;28491;46.898;7.660;2023-04-29T01:30:51;12.30;99.90
42841;DHT22;28491;46.898;7.660;2023-04-29T01:33:40;12.30;99.90
42841;DHT22;28491;46.898;7.660;2023-04-29T01:39:32;12.20;99.90
42841;DHT22;28491;46.898;7.660;2023-04-29T01:42:14;12.20;99.90
42841;DHT22;28491;46.898;7.660;2023-04-29T01:44:40;12.20;99.90
42841;DHT22;28491;46.898;7.660;2023-04-29T01:47:09;12.20;99.90
42841;DHT22;28491;46.898;7.660;2023-04-29T01:49:37;12.20;99.90
42841;DHT22;28491;46.898;7.660;2023-04-29T01:52:04;12.20;99.90
42841;DHT22;28491;46.898;7.660;2023-04-29T01:54:30;12.20;99.90
42841;DHT22;28491;46.898;7.660;2023-04-29T01:56:56;12.20;99.90
42841;DHT22;28491;46.898;7.660;2023-04-29T01:59:22;12.30;99.90
42841;DHT22;28491;46.898;7.660;2023-04-29T02:01:48;12.20;99.90
42841;DHT22;28491;46.898;7.660;2023-04-29T02:04:13;12.20;99.90
42841;DHT22;28491;46.898;7.660;2023-04-29T02:06:39;12.20;99.90
42841;DHT22;28491;46.898;7.660;2023-04-29T02:09:05;12.20;99.90
42841;DHT22;28491;46.898;7.660;2023-04-29T02:11:30;12.10;99.90
42841;DHT22;28491;46.898;7.660;2023-04-29T02:13:56;12.20;99.90
42841;DHT22;28491;46.898;7.660;2023-04-29T02:16:21;12.20;99.90
42841;DHT22;28491;46.898;7.660;2023-04-29T02:18:47;12.20;99.90
42841;DHT22;28491;46.898;7.660;2023-04-29T02:21:12;12.20;99.90
42841;DHT22;28491;46.898;7.660;2023-04-29T02:23:38;12.20;99.90
42841;DHT22;28491;46.898;7.660;2023-04-29T02:26:03;12.20;99.90
42841;DHT22;28491;46.898;7.660;2023-04-29T02:28:33;12.20;99.90
42841;DHT22;28491;46.898;7.660;2023-04-29T02:30:59;12.20;99.90
42841;DHT22;28491;46.898;7.660;2023-04-29T02:33:25;12.20;99.90
42841;DHT22;28491;46.898;7.660;2023-04-29T02:35:50;12.20;99.90
42841;DHT22;28491;46.898;7.660;2023-04-29T02:38:16;12.10;99.90
42841;DHT22;28491;46.898;7.660;2023-04-29T02:40:45;12.10;99.90
42841;DHT22;28491;46.898;7.660;2023-04-29T02:43:11;12.20;99.90
42841;DHT22;28491;46.898;7.660;2023-04-29T02:45:37;12.20;99.90
42841;DHT22;28491;46.898;7.660;2023-04-29T02:48:04;12.10;99.90
42841;DHT22;28491;46.898;7.660;2023-04-29T02:50:29;12.10;99.90
42841;DHT22;28491;46.898;7.660;2023-04-29T02:52:55;12.10;99.90
42841;DHT22;28491;46.898;7.660;2023-04-29T02:55:20;12.10;99.90
42841;DHT22;28491;46.898;7.660;2023-04-29T02:57:46;12.10;99.90
42841;DHT22;28491;46.898;7.660;2023-04-29T03:00:12;12.00;99.90
42841;DHT22;28491;46.898;7.660;2023-04-29T03:02:37;12.00;99.90
42841;DHT22;28491;46.898;7.660;2023-04-29T03:05:04;12.00;99.90
42841;DHT22;28491;46.898;7.660;2023-04-29T03:07:30;12.10;99.90
42841;DHT22;28491;46.898;7.660;2023-04-29T03:09:56;12.10;99.90
42841;DHT22;28491;46.898;7.660;2023-04-29T03:12:21;12.10;99.90
42841;DHT22;28491;46.898;7.660;2023-04-29T03:14:47;12.10;99.90
42841;DHT22;28491;46.898;7.660;2023-04-29T03:17:13;12.10;99.90
42841;DHT22;28491;46.898;7.660;2023-04-29T03:19:39;12.10;99.90
42841;DHT22;28491;46.898;7.660;2023-04-29T03:22:05;12.10;99.90
42841;DHT22;28491;46.898;7.660;2023-04-29T03:24:32;12.10;99.90
42841;DHT22;28491;46.898;7.660;2023-04-29T03:26:58;12.10;99.90
42841;DHT22;28491;46.898;7.660;2023-04-29T03:29:24;12.00;99.90
42841;DHT22;28491;46.898;7.660;2023-04-29T03:31:52;12.00;99.90
42841;DHT22;28491;46.898;7.660;2023-04-29T03:34:18;12.00;99.90
42841;DHT22;28491;46.898;7.660;2023-04-29T03:36:43;12.00;99.90
42841;DHT22;28491;46.898;7.660;2023-04-29T03:39:09;12.00;99.90
42841;DHT22;28491;46.898;7.660;2023-04-29T03:41:37;12.00;99.90
42841;DHT22;28491;46.898;7.660;2023-04-29T03:44:02;12.00;99.90
42841;DHT22;28491;46.898;7.660;2023-04-29T03:46:28;12.00;99.90
42841;DHT22;28491;46.898;7.660;2023-04-29T03:48:54;12.00;99.90
42841;DHT22;28491;46.898;7.660;2023-04-29T03:51:21;12.00;99.90
42841;DHT22;28491;46.898;7.660;2023-04-29T03:53:47;11.90;99.90
42841;DHT22;28491;46.898;7.660;2023-04-29T03:56:13;11.90;99.90
42841;DHT22;28491;46.898;7.660;2023-04-29T03:58:38;12.00;99.90
42841;DHT22;28491;46.898;7.660;2023-04-29T04:01:04;11.90;99.90
42841;DHT22;28491;46.898;7.660;2023-04-29T04:03:29;12.00;99.90
42841;DHT22;28491;46.898;7.660;2023-04-29T04:05:55;12.00;99.90
42841;DHT22;28491;46.898;7.660;2023-04-29T04:08:20;12.00;99.90
42841;DHT22;28491;46.898;7.660;2023-04-29T04:10:46;12.00;99.90
42841;DHT22;28491;46.898;7.660;2023-04-29T04:13:11;12.00;99.90
42841;DHT22;28491;46.898;7.660;2023-04-29T04:15:37;12.00;99.90
42841;DHT22;28491;46.898;7.660;2023-04-29T04:18:02;11.90;99.90
42841;DHT22;28491;46.898;7.660;2023-04-29T04:20:28;11.90;99.90
42841;DHT22;28491;46.898;7.660;2023-04-29T04:22:53;11.90;99.90
42841;DHT22;28491;46.898;7.660;2023-04-29T04:25:19;11.80;99.90
42841;DHT22;28491;46.898;7.660;2023-04-29T04:27:45;11.80;99.90
42841;DHT22;28491;46.898;7.660;2023-04-29T04:30:10;11.90;99.90
42841;DHT22;28491;46.898;7.660;2023-04-29T04:32:36;11.90;99.90
42841;DHT22;28491;46.898;7.660;2023-04-29T04:35:03;11.90;99.90
42841;DHT22;28491;46.898;7.660;2023-04-29T04:37:29;11.90;99.90
42841;DHT22;28491;46.898;7.660;2023-04-29T04:39:54;11.90;99.90
42841;DHT22;28491;46.898;7.660;2023-04-29T04:42:21;11.90;99.90
42841;DHT22;28491;46.898;7.660;2023-04-29T04:44:47;12.00;99.90
42841;DHT22;28491;46.898;7.660;2023-04-29T04:47:12;12.00;99.90
42841;DHT22;28491;46.898;7.660;2023-04-29T04:49:38;12.00;99.90
42841;DHT22;28491;46.898;7.660;2023-04-29T04:52:03;12.00;99.90
42841;DHT22;28491;46.898;7.660;2023-04-29T04:54:29;12.00;99.90
42841;DHT22;28491;46.898;7.660;2023-04-29T04:56:55;12.00;99.90
42841;DHT22;28491;46.898;7.660;2023-04-29T04:59:20;12.00;99.90
42841;DHT22;28491;46.898;7.660;2023-04-29T05:01:46;12.00;99.90
42841;DHT22;28491;46.898;7.660;2023-04-29T05:04:12;12.00;99.90
42841;DHT22;28491;46.898;7.660;2023-04-29T05:06:37;12.00;99.90
42841;DHT22;28491;46.898;7.660;2023-04-29T05:09:03;12.00;99.90
42841;DHT22;28491;46.898;7.660;2023-04-29T05:11:28;12.10;99.90
42841;DHT22;28491;46.898;7.660;2023-04-29T05:13:54;12.00;99.90
42841;DHT22;28491;46.898;7.660;2023-04-29T05:16:19;12.00;99.90
42841;DHT22;28491;46.898;7.660;2023-04-29T05:18:45;12.00;99.90
42841;DHT22;28491;46.898;7.660;2023-04-29T05:21:11;11.90;99.90
42841;DHT22;28491;46.898;7.660;2023-04-29T05:23:37;11.90;99.90
42841;DHT22;28491;46.898;7.660;2023-04-29T05:26:03;11.90;99.90
42841;DHT22;28491;46.898;7.660;2023-04-29T05:28:28;11.90;99.90
42841;DHT22;28491;46.898;7.660;2023-04-29T05:30:54;12.00;99.90
42841;DHT22;28491;46.898;7.660;2023-04-29T05:33:19;12.10;99.90
42841;DHT22;28491;46.898;7.660;2023-04-29T05:35:45;12.10;99.90
42841;DHT22;28491;46.898;7.660;2023-04-29T05:38:10;12.20;99.90
42841;DHT22;28491;46.898;7.660;2023-04-29T05:40:36;12.20;99.90
42841;DHT22;28491;46.898;7.660;2023-04-29T05:43:02;12.20;99.90
42841;DHT22;28491;46.898;7.660;2023-04-29T05:45:28;12.20;99.90
42841;DHT22;28491;46.898;7.660;2023-04-29T05:47:53;12.20;99.90
42841;DHT22;28491;46.898;7.660;2023-04-29T05:50:19;12.20;99.90
42841;DHT22;28491;46.898;7.660;2023-04-29T05:52:44;12.30;99.90
42841;DHT22;28491;46.898;7.660;2023-04-29T05:55:10;12.20;99.90
42841;DHT22;28491;46.898;7.660;2023-04-29T05:57:35;12.20;99.90
42841;DHT22;28491;46.898;7.660;2023-04-29T06:00:01;12.20;99.90
42841;DHT22;28491;46.898;7.660;2023-04-29T06:02:28;12.20;99.90
42841;DHT22;28491;46.898;7.660;2023-04-29T06:04:53;12.30;99.90
42841;DHT22;28491;46.898;7.660;2023-04-29T06:07:19;12.30;99.90
42841;DHT22;28491;46.898;7.660;2023-04-29T06:09:45;12.30;99.90
42841;DHT22;28491;46.898;7.660;2023-04-29T06:12:10;12.30;99.90
42841;DHT22;28491;46.898;7.660;2023-04-29T06:14:36;12.40;99.90
42841;DHT22;28491;46.898;7.660;2023-04-29T06:17:01;12.40;99.90
42841;DHT22;28491;46.898;7.660;2023-04-29T06:19:28;12.40;99.90
42841;DHT22;28491;46.898;7.660;2023-04-29T06:21:54;12.40;99.90
42841;DHT22;28491;46.898;7.660;2023-04-29T06:24:19;12.40;99.90
42841;DHT22;28491;46.898;7.660;2023-04-29T06:26:45;12.50;99.90
42841;DHT22;28491;46.898;7.660;2023-04-29T06:29:11;12.40;99.90
42841;DHT22;28491;46.898;7.660;2023-04-29T06:31:36;12.40;99.90
42841;DHT22;28491;46.898;7.660;2023-04-29T06:34:02;12.40;99.90
42841;DHT22;28491;46.898;7.660;2023-04-29T06:36:28;12.40;99.90
42841;DHT22;28491;46.898;7.660;2023-04-29T06:38:53;12.40;99.90
42841;DHT22;28491;46.898;7.660;2023-04-29T06:41:19;12.40;99.90
42841;DHT22;28491;46.898;7.660;2023-04-29T06:43:45;12.40;99.90
42841;DHT22;28491;46.898;7.660;2023-04-29T06:46:10;12.50;99.90
42841;DHT22;28491;46.898;7.660;2023-04-29T06:48:37;12.50;99.90
42841;DHT22;28491;46.898;7.660;2023-04-29T06:51:03;12.60;99.90
42841;DHT22;28491;46.898;7.660;2023-04-29T06:53:28;12.60;99.90
42841;DHT22;28491;46.898;7.660;2023-04-29T06:55:54;12.60;99.90
42841;DHT22;28491;46.898;7.660;2023-04-29T06:58:19;12.70;99.90
42841;DHT22;28491;46.898;7.660;2023-04-29T07:00:46;12.70;99.90
42841;DHT22;28491;46.898;7.660;2023-04-29T07:03:12;12.80;99.90
42841;DHT22;28491;46.898;7.660;2023-04-29T07:05:39;12.90;99.90
42841;DHT22;28491;46.898;7.660;2023-04-29T07:08:06;13.00;99.90
42841;DHT22;28491;46.898;7.660;2023-04-29T07:10:33;13.00;99.90
42841;DHT22;28491;46.898;7.660;2023-04-29T07:12:58;13.00;99.90
42841;DHT22;28491;46.898;7.660;2023-04-29T07:15:25;13.10;99.90
42841;DHT22;28491;46.898;7.660;2023-04-29T07:17:51;13.20;99.90
42841;DHT22;28491;46.898;7.660;2023-04-29T07:20:17;13.10;99.90
42841;DHT22;28491;46.898;7.660;2023-04-29T07:22:42;13.00;99.40
42841;DHT22;28491;46.898;7.660;2023-04-29T07:25:08;13.20;99.90
42841;DHT22;28491;46.898;7.660;2023-04-29T07:27:35;13.30;99.90
42841;DHT22;28491;46.898;7.660;2023-04-29T07:30:01;13.40;99.90
42841;DHT22;28491;46.898;7.660;2023-04-29T07:32:27;13.40;99.90
42841;DHT22;28491;46.898;7.660;2023-04-29T07:34:53;13.50;99.90
42841;DHT22;28491;46.898;7.660;2023-04-29T07:37:18;13.60;99.90
42841;DHT22;28491;46.898;7.660;2023-04-29T07:39:44;13.70;99.80
42841;DHT22;28491;46.898;7.660;2023-04-29T07:42:11;13.70;98.20
42841;DHT22;28491;46.898;7.660;2023-04-29T07:44:36;13.80;98.30
42841;DHT22;28491;46.898;7.660;2023-04-29T07:47:02;13.90;99.40
42841;DHT22;28491;46.898;7.660;2023-04-29T07:49:28;14.00;99.40
42841;DHT22;28491;46.898;7.660;2023-04-29T07:51:53;14.20;99.20
42841;DHT22;28491;46.898;7.660;2023-04-29T07:54:19;14.30;98.10
42841;DHT22;28491;46.898;7.660;2023-04-29T07:56:45;14.50;96.30
42841;DHT22;28491;46.898;7.660;2023-04-29T07:59:10;14.60;95.50
42841;DHT22;28491;46.898;7.660;2023-04-29T08:01:36;14.90;97.30
42841;DHT22;28491;46.898;7.660;2023-04-29T08:04:02;15.10;93.50
42841;DHT22;28491;46.898;7.660;2023-04-29T08:06:28;15.70;94.70
42841;DHT22;28491;46.898;7.660;2023-04-29T08:08:55;16.70;85.80
42841;DHT22;28491;46.898;7.660;2023-04-29T08:11:21;17.60;64.10
42841;DHT22;28491;46.898;7.660;2023-04-29T08:13:48;18.70;49.70
42841;DHT22;28491;46.898;7.660;2023-04-29T08:16:14;19.90;24.60
42841;DHT22;28491;46.898;7.660;2023-04-29T08:18:40;19.80;1.00
42841;DHT22;28491;46.898;7.660;2023-04-29T08:21:05;19.30;7.70
42841;DHT22;28491;46.898;7.660;2023-04-29T08:23:31;18.80;21.70
42841;DHT22;28491;46.898;7.660;2023-04-29T08:25:57;18.40;29.00
42841;DHT22;28491;46.898;7.660;2023-04-29T08:28:23;18.00;30.30
42841;DHT22;28491;46.898;7.660;2023-04-29T08:30:49;18.10;29.30
42841;DHT22;28491;46.898;7.660;2023-04-29T08:33:14;18.50;27.50
42841;DHT22;28491;46.898;7.660;2023-04-29T08:35:41;18.80;23.00
42841;DHT22;28491;46.898;7.660;2023-04-29T08:38:07;19.10;10.50
42841;DHT22;28491;46.898;7.660;2023-04-29T08:40:39;19.90;11.00
42841;DHT22;28491;46.898;7.660;2023-04-29T08:43:06;20.70;1.00
42841;DHT22;28491;46.898;7.660;2023-04-29T08:45:34;21.50;1.00
42841;DHT22;28491;46.898;7.660;2023-04-29T08:48:02;21.80;1.00
42841;DHT22;28491;46.898;7.660;2023-04-29T08:50:30;21.70;1.00
42841;DHT22;28491;46.898;7.660;2023-04-29T08:52:57;21.70;1.00
42841;DHT22;28491;46.898;7.660;2023-04-29T08:55:23;22.00;1.00
42841;DHT22;28491;46.898;7.660;2023-04-29T08:57:49;22.40;1.00
42841;DHT22;28491;46.898;7.660;2023-04-29T09:00:18;22.60;1.00
42841;DHT22;28491;46.898;7.660;2023-04-29T09:02:48;22.80;1.00
42841;DHT22;28491;46.898;7.660;2023-04-29T09:05:15;23.00;1.00
42841;DHT22;28491;46.898;7.660;2023-04-29T09:07:41;23.10;1.00
42841;DHT22;28491;46.898;7.660;2023-04-29T09:10:07;23.50;1.00
42841;DHT22;28491;46.898;7.660;2023-04-29T09:12:33;23.90;1.00
42841;DHT22;28491;46.898;7.660;2023-04-29T09:15:00;24.10;1.00
42841;DHT22;28491;46.898;7.660;2023-04-29T09:17:38;24.40;1.00
42841;DHT22;28491;46.898;7.660;2023-04-29T09:22:52;24.70;1.00
42841;DHT22;28491;46.898;7.660;2023-04-29T09:25:18;24.70;1.00
42841;DHT22;28491;46.898;7.660;2023-04-29T09:27:45;24.80;1.00
42841;DHT22;28491;46.898;7.660;2023-04-29T09:30:11;24.30;1.00
42841;DHT22;28491;46.898;7.660;2023-04-29T09:32:38;23.90;1.00
42841;DHT22;28491;46.898;7.660;2023-04-29T09:35:26;24.00;1.00
42841;DHT22;28491;46.898;7.660;2023-04-29T09:38:08;24.40;1.00
42841;DHT22;28491;46.898;7.660;2023-04-29T09:40:34;24.50;1.00
42841;DHT22;28491;46.898;7.660;2023-04-29T09:43:01;24.40;1.00
42841;DHT22;28491;46.898;7.660;2023-04-29T09:48:03;24.60;1.00
42841;DHT22;28491;46.898;7.660;2023-04-29T09:50:29;24.80;1.00
42841;DHT22;28491;46.898;7.660;2023-04-29T09:52:55;24.80;1.00
42841;DHT22;28491;46.898;7.660;2023-04-29T09:55:20;25.10;1.00
42841;DHT22;28491;46.898;7.660;2023-04-29T09:57:46;25.10;1.00
42841;DHT22;28491;46.898;7.660;2023-04-29T10:00:12;24.80;1.00
42841;DHT22;28491;46.898;7.660;2023-04-29T10:02:41;24.80;1.00
42841;DHT22;28491;46.898;7.660;2023-04-29T10:05:08;24.70;1.00
42841;DHT22;28491;46.898;7.660;2023-04-29T10:07:35;24.60;1.00
42841;DHT22;28491;46.898;7.660;2023-04-29T10:10:04;24.60;1.00
42841;DHT22;28491;46.898;7.660;2023-04-29T10:12:33;24.70;1.00
42841;DHT22;28491;46.898;7.660;2023-04-29T10:17:46;24.30;1.00
42841;DHT22;28491;46.898;7.660;2023-04-29T10:20:17;24.30;1.00
42841;DHT22;28491;46.898;7.660;2023-04-29T10:22:50;24.20;1.00
42841;DHT22;28491;46.898;7.660;2023-04-29T10:25:18;24.30;1.00
42841;DHT22;28491;46.898;7.660;2023-04-29T10:27:44;24.30;1.00
42841;DHT22;28491;46.898;7.660;2023-04-29T10:30:15;24.50;1.00
42841;DHT22;28491;46.898;7.660;2023-04-29T10:32:42;24.50;1.00
42841;DHT22;28491;46.898;7.660;2023-04-29T10:35:09;24.20;1.00
42841;DHT22;28491;46.898;7.660;2023-04-29T10:37:41;24.00;1.00
42841;DHT22;28491;46.898;7.660;2023-04-29T10:42:58;24.70;1.00
42841;DHT22;28491;46.898;7.660;2023-04-29T10:53:17;24.50;1.00
42841;DHT22;28491;46.898;7.660;2023-04-29T10:55:56;24.30;1.00
42841;DHT22;28491;46.898;7.660;2023-04-29T10:58:51;24.30;1.00
42841;DHT22;28491;46.898;7.660;2023-04-29T11:01:17;24.10;1.00
42841;DHT22;28491;46.898;7.660;2023-04-29T11:03:53;24.00;1.00
42841;DHT22;28491;46.898;7.660;2023-04-29T11:06:22;24.20;1.00
42841;DHT22;28491;46.898;7.660;2023-04-29T11:09:03;24.20;1.00
42841;DHT22;28491;46.898;7.660;2023-04-29T11:12:00;24.20;1.00
42841;DHT22;28491;46.898;7.660;2023-04-29T11:14:41;24.30;1.00
42841;DHT22;28491;46.898;7.660;2023-04-29T11:17:09;24.50;1.00
42841;DHT22;28491;46.898;7.660;2023-04-29T11:19:39;24.80;1.00
42841;DHT22;28491;46.898;7.660;2023-04-29T11:24:57;24.80;1.00
42841;DHT22;28491;46.898;7.660;2023-04-29T11:29:58;23.90;1.00
42841;DHT22;28491;46.898;7.660;2023-04-29T11:32:28;23.70;1.00
42841;DHT22;28491;46.898;7.660;2023-04-29T12:09:43;21.30;1.00
42841;DHT22;28491;46.898;7.660;2023-04-29T12:12:09;21.10;1.00
42841;DHT22;28491;46.898;7.660;2023-04-29T12:14:35;20.90;1.00
42841;DHT22;28491;46.898;7.660;2023-04-29T12:17:01;20.80;1.00
42841;DHT22;28491;46.898;7.660;2023-04-29T12:19:27;21.00;1.00
42841;DHT22;28491;46.898;7.660;2023-04-29T12:21:52;21.10;1.00
42841;DHT22;28491;46.898;7.660;2023-04-29T12:24:20;21.00;1.00
42841;DHT22;28491;46.898;7.660;2023-04-29T12:26:45;21.10;1.00
42841;DHT22;28491;46.898;7.660;2023-04-29T12:29:12;21.50;1.00
42841;DHT22;28491;46.898;7.660;2023-04-29T12:31:37;21.60;1.00
42841;DHT22;28491;46.898;7.660;2023-04-29T12:34:03;21.60;1.00
42841;DHT22;28491;46.898;7.660;2023-04-29T12:36:30;21.90;1.00
42841;DHT22;28491;46.898;7.660;2023-04-29T12:38:58;22.20;1.00
42841;DHT22;28491;46.898;7.660;2023-04-29T12:41:39;22.00;1.00
42841;DHT22;28491;46.898;7.660;2023-04-29T12:44:06;22.30;1.00
42841;DHT22;28491;46.898;7.660;2023-04-29T12:46:39;22.80;1.00
42841;DHT22;28491;46.898;7.660;2023-04-29T12:49:05;23.30;1.00
42841;DHT22;28491;46.898;7.660;2023-04-29T12:51:33;23.70;1.00
42841;DHT22;28491;46.898;7.660;2023-04-29T12:54:02;23.80;1.00
42841;DHT22;28491;46.898;7.660;2023-04-29T12:56:29;23.80;1.00
42841;DHT22;28491;46.898;7.660;2023-04-29T12:58:55;23.70;1.00
42841;DHT22;28491;46.898;7.660;2023-04-29T13:01:21;23.60;1.00
42841;DHT22;28491;46.898;7.660;2023-04-29T13:03:46;23.60;1.00
42841;DHT22;28491;46.898;7.660;2023-04-29T13:06:14;23.50;1.00
42841;DHT22;28491;46.898;7.660;2023-04-29T13:08:39;23.60;1.00
42841;DHT22;28491;46.898;7.660;2023-04-29T13:11:05;23.70;1.00
42841;DHT22;28491;46.898;7.660;2023-04-29T13:13:31;23.30;1.00
42841;DHT22;28491;46.898;7.660;2023-04-29T13:15:56;23.10;1.00
42841;DHT22;28491;46.898;7.660;2023-04-29T13:18:22;23.20;1.00
42841;DHT22;28491;46.898;7.660;2023-04-29T13:20:48;22.80;1.00
42841;DHT22;28491;46.898;7.660;2023-04-29T13:23:13;22.90;1.00
42841;DHT22;28491;46.898;7.660;2023-04-29T13:25:39;23.00;1.00
42841;DHT22;28491;46.898;7.660;2023-04-29T13:28:04;23.30;1.00
42841;DHT22;28491;46.898;7.660;2023-04-29T13:30:30;23.00;1.00
42841;DHT22;28491;46.898;7.660;2023-04-29T13:32:56;22.60;1.00
42841;DHT22;28491;46.898;7.660;2023-04-29T13:35:21;22.70;1.00
42841;DHT22;28491;46.898;7.660;2023-04-29T13:37:47;22.70;1.00
42841;DHT22;28491;46.898;7.660;2023-04-29T13:40:13;22.70;1.00
42841;DHT22;28491;46.898;7.660;2023-04-29T13:42:39;22.80;1.00
42841;DHT22;28491;46.898;7.660;2023-04-29T13:45:04;22.90;1.00
42841;DHT22;28491;46.898;7.660;2023-04-29T13:47:30;23.10;1.00
42841;DHT22;28491;46.898;7.660;2023-04-29T13:49:56;23.20;1.00
42841;DHT22;28491;46.898;7.660;2023-04-29T13:52:21;23.30;1.00
42841;DHT22;28491;46.898;7.660;2023-04-29T13:54:47;23.50;1.00
42841;DHT22;28491;46.898;7.660;2023-04-29T13:57:12;23.50;1.00
42841;DHT22;28491;46.898;7.660;2023-04-29T13:59:38;23.50;1.00
42841;DHT22;28491;46.898;7.660;2023-04-29T14:02:03;23.30;1.00
42841;DHT22;28491;46.898;7.660;2023-04-29T14:04:29;23.00;1.00
42841;DHT22;28491;46.898;7.660;2023-04-29T14:06:55;22.70;1.00
42841;DHT22;28491;46.898;7.660;2023-04-29T14:09:22;22.50;1.00
42841;DHT22;28491;46.898;7.660;2023-04-29T14:11:48;22.20;1.00
42841;DHT22;28491;46.898;7.660;2023-04-29T14:14:14;22.10;1.00
42841;DHT22;28491;46.898;7.660;2023-04-29T14:16:39;21.50;1.00
42841;DHT22;28491;46.898;7.660;2023-04-29T14:19:05;21.30;1.00
42841;DHT22;28491;46.898;7.660;2023-04-29T14:21:32;21.20;1.00
42841;DHT22;28491;46.898;7.660;2023-04-29T14:24:01;21.30;1.00
42841;DHT22;28491;46.898;7.660;2023-04-29T14:26:28;21.50;1.00
42841;DHT22;28491;46.898;7.660;2023-04-29T14:28:57;21.70;1.00
42841;DHT22;28491;46.898;7.660;2023-04-29T14:31:28;21.60;1.00
42841;DHT22;28491;46.898;7.660;2023-04-29T14:33:55;21.20;1.00
42841;DHT22;28491;46.898;7.660;2023-04-29T14:36:21;21.10;1.00
42841;DHT22;28491;46.898;7.660;2023-04-29T14:38:46;21.10;1.00
42841;DHT22;28491;46.898;7.660;2023-04-29T14:41:12;20.70;1.00
42841;DHT22;28491;46.898;7.660;2023-04-29T14:43:37;20.40;1.00
42841;DHT22;28491;46.898;7.660;2023-04-29T14:46:03;20.30;1.00
42841;DHT22;28491;46.898;7.660;2023-04-29T14:48:29;20.50;1.00
42841;DHT22;28491;46.898;7.660;2023-04-29T14:50:55;20.30;1.00
42841;DHT22;28491;46.898;7.660;2023-04-29T14:53:20;20.10;1.00
42841;DHT22;28491;46.898;7.660;2023-04-29T14:55:48;20.30;1.00
42841;DHT22;28491;46.898;7.660;2023-04-29T14:58:13;20.40;1.00
42841;DHT22;28491;46.898;7.660;2023-04-29T15:00:39;20.30;1.00
42841;DHT22;28491;46.898;7.660;2023-04-29T15:03:05;20.00;1.00
42841;DHT22;28491;46.898;7.660;2023-04-29T15:05:30;19.50;1.00
42841;DHT22;28491;46.898;7.660;2023-04-29T15:07:56;19.20;1.00
42841;DHT22;28491;46.898;7.660;2023-04-29T15:10:22;19.00;1.00
42841;DHT22;28491;46.898;7.660;2023-04-29T15:12:48;18.80;1.00
42841;DHT22;28491;46.898;7.660;2023-04-29T15:15:16;18.70;1.00
42841;DHT22;28491;46.898;7.660;2023-04-29T15:17:41;18.80;1.00
42841;DHT22;28491;46.898;7.660;2023-04-29T15:20:07;18.80;1.00
42841;DHT22;28491;46.898;7.660;2023-04-29T15:22:33;18.60;7.80
42841;DHT22;28491;46.898;7.660;2023-04-29T15:24:59;18.50;39.60
42841;DHT22;28491;46.898;7.660;2023-04-29T15:27:25;18.40;39.70
42841;DHT22;28491;46.898;7.660;2023-04-29T15:29:51;18.20;45.30
42841;DHT22;28491;46.898;7.660;2023-04-29T15:32:18;17.90;61.70
42841;DHT22;28491;46.898;7.660;2023-04-29T15:34:44;17.60;60.60
42841;DHT22;28491;46.898;7.660;2023-04-29T15:37:10;17.20;51.10
42841;DHT22;28491;46.898;7.660;2023-04-29T15:39:35;16.90;63.00
42841;DHT22;28491;46.898;7.660;2023-04-29T15:42:01;16.50;62.00
42841;DHT22;28491;46.898;7.660;2023-04-29T15:44:26;16.40;67.10
42841;DHT22;28491;46.898;7.660;2023-04-29T15:46:51;16.20;65.70
42841;DHT22;28491;46.898;7.660;2023-04-29T15:49:17;16.30;63.90
42841;DHT22;28491;46.898;7.660;2023-04-29T15:51:42;16.40;61.90
42841;DHT22;28491;46.898;7.660;2023-04-29T15:54:08;16.30;61.90
42841;DHT22;28491;46.898;7.660;2023-04-29T15:56:34;16.30;64.80
42841;DHT22;28491;46.898;7.660;2023-04-29T15:59:00;16.30;65.70
42841;DHT22;28491;46.898;7.660;2023-04-29T16:01:26;16.30;69.10
42841;DHT22;28491;46.898;7.660;2023-04-29T16:03:52;16.30;67.70
42841;DHT22;28491;46.898;7.660;2023-04-29T16:06:18;16.30;67.80
42841;DHT22;28491;46.898;7.660;2023-04-29T16:08:43;16.20;66.90
42841;DHT22;28491;46.898;7.660;2023-04-29T16:11:09;16.20;65.30
42841;DHT22;28491;46.898;7.660;2023-04-29T16:13:34;16.10;68.90
42841;DHT22;28491;46.898;7.660;2023-04-29T16:16:00;16.10;67.40
42841;DHT22;28491;46.898;7.660;2023-04-29T16:18:26;16.20;67.90
42841;DHT22;28491;46.898;7.660;2023-04-29T16:20:51;16.30;61.20
42841;DHT22;28491;46.898;7.660;2023-04-29T16:23:17;16.50;63.60
42841;DHT22;28491;46.898;7.660;2023-04-29T16:25:43;16.60;60.20
42841;DHT22;28491;46.898;7.660;2023-04-29T16:28:08;16.70;45.80
42841;DHT22;28491;46.898;7.660;2023-04-29T16:30:34;16.80;31.00
42841;DHT22;28491;46.898;7.660;2023-04-29T16:33:00;16.90;21.80
42841;DHT22;28491;46.898;7.660;2023-04-29T16:35:25;16.80;19.40
42841;DHT22;28491;46.898;7.660;2023-04-29T16:37:53;16.70;13.00
42841;DHT22;28491;46.898;7.660;2023-04-29T16:40:20;16.70;12.00
42841;DHT22;28491;46.898;7.660;2023-04-29T16:42:45;16.50;21.40
42841;DHT22;28491;46.898;7.660;2023-04-29T16:45:11;16.40;24.10